createdAt,value
2022-10-17T00:01:56.758Z,21.23
2022-10-17T00:04:42.332Z,20.73
2022-10-17T00:07:28.796Z,20.08
2022-10-17T00:10:15.188Z,19.50
2022-10-17T00:13:00.783Z,20.45
2022-10-17T00:15:46.264Z,21.85
2022-10-17T00:18:32.366Z,21.35
2022-10-17T00:21:19.326Z,21.33
2022-10-17T00:24:05.790Z,21.67
2022-10-17T00:26:51.511Z,22.08
2022-10-17T00:29:37.838Z,22.17
2022-10-17T00:32:23.848Z,20.50
2022-10-17T00:35:09.940Z,20.45
2022-10-17T00:37:55.570Z,20.25
2022-10-17T00:40:41.475Z,20.48
2022-10-17T00:43:27.355Z,21.27
2022-10-17T00:46:13.322Z,22.35
2022-10-17T00:49:03.137Z,23.05
2022-10-17T00:51:57.818Z,22.60
2022-10-17T00:54:50.161Z,24.08
2022-10-17T00:57:35.946Z,24.30
2022-10-17T01:00:21.886Z,24.40
2022-10-17T01:03:07.522Z,23.35
2022-10-17T01:05:53.038Z,23.73
2022-10-17T01:08:39.299Z,23.25
2022-10-17T01:11:44.330Z,25.15
2022-10-17T01:14:46.636Z,23.23
2022-10-17T01:18:17.547Z,24.50
2022-10-17T01:24:32.704Z,25.02
2022-10-17T01:27:30.305Z,26.42
2022-10-17T01:30:47.745Z,24.88
2022-10-17T01:34:00.227Z,24.50
2022-10-17T01:36:57.984Z,23.92
2022-10-17T01:39:50.812Z,23.75
2022-10-17T01:42:49.671Z,26.50
2022-10-17T01:45:40.838Z,24.00
2022-10-17T01:48:33.157Z,25.38
2022-10-17T01:51:23.367Z,25.10
2022-10-17T01:54:24.327Z,25.85
2022-10-17T01:57:21.018Z,25.10
2022-10-17T02:00:11.620Z,23.42
2022-10-17T02:03:02.791Z,24.27
2022-10-17T02:05:48.754Z,25.45
2022-10-17T02:08:48.862Z,25.63
2022-10-17T02:11:35.029Z,25.42
2022-10-17T02:14:39.767Z,25.88
2022-10-17T02:17:30.666Z,27.05
2022-10-17T02:20:17.944Z,27.45
2022-10-17T02:23:11.418Z,26.30
2022-10-17T02:26:06.526Z,25.95
2022-10-17T02:29:13.539Z,26.17
2022-10-17T02:32:04.255Z,26.38
2022-10-17T02:34:53.056Z,25.10
2022-10-17T02:37:39.888Z,25.67
2022-10-17T02:40:27.025Z,26.38
2022-10-17T02:43:13.310Z,26.77
2022-10-17T02:45:59.256Z,25.92
2022-10-17T02:48:49.429Z,25.23
2022-10-17T02:52:01.811Z,25.52
2022-10-17T02:54:48.952Z,25.77
2022-10-17T02:57:38.639Z,24.67
2022-10-17T03:00:25.645Z,24.95
2022-10-17T03:03:27.454Z,26.50
2022-10-17T03:06:13.394Z,24.15
2022-10-17T03:08:58.749Z,25.30
2022-10-17T03:11:45.450Z,24.83
2022-10-17T03:14:31.958Z,22.83
2022-10-17T03:17:17.821Z,23.98
2022-10-17T03:20:05.646Z,24.25
2022-10-17T03:22:51.267Z,24.27
2022-10-17T03:25:37.468Z,23.67
2022-10-17T03:28:24.530Z,23.70
2022-10-17T03:31:13.164Z,24.50
2022-10-17T03:33:59.513Z,25.10
2022-10-17T03:36:45.748Z,24.50
2022-10-17T03:39:31.671Z,24.27
2022-10-17T03:42:17.803Z,24.58
2022-10-17T03:45:04.252Z,24.67
2022-10-17T03:47:50.401Z,23.02
2022-10-17T03:50:36.965Z,23.77
2022-10-17T03:53:22.814Z,21.70
2022-10-17T03:56:12.052Z,22.80
2022-10-17T03:58:57.772Z,24.02
2022-10-17T04:01:44.235Z,22.85
2022-10-17T04:04:31.129Z,23.10
2022-10-17T04:07:17.743Z,21.90
2022-10-17T04:10:05.102Z,22.92
2022-10-17T04:12:51.653Z,22.23
2022-10-17T04:15:37.059Z,22.27
2022-10-17T04:18:23.816Z,22.48
2022-10-17T04:21:10.506Z,22.45
2022-10-17T04:23:58.474Z,22.13
2022-10-17T04:27:02.729Z,23.30
2022-10-17T04:29:52.400Z,23.33
2022-10-17T04:32:43.600Z,24.10
2022-10-17T04:35:37.961Z,24.27
2022-10-17T04:38:28.519Z,24.02
2022-10-17T04:41:16.959Z,23.85
2022-10-17T04:44:02.420Z,24.25
2022-10-17T04:46:51.295Z,23.63
2022-10-17T04:49:37.460Z,23.20
2022-10-17T04:52:28.828Z,24.23
2022-10-17T04:55:14.508Z,23.80
2022-10-17T04:58:01.216Z,22.88
2022-10-17T05:00:49.476Z,23.30
2022-10-17T05:03:46.174Z,24.17
2022-10-17T05:06:33.137Z,24.35
2022-10-17T05:09:54.242Z,22.75
2022-10-17T05:12:41.088Z,23.15
2022-10-17T05:15:27.001Z,23.70
2022-10-17T05:18:14.016Z,23.33
2022-10-17T05:21:03.912Z,23.35
2022-10-17T05:23:49.912Z,25.42
2022-10-17T05:26:36.411Z,25.30
2022-10-17T05:29:22.732Z,25.17
2022-10-17T05:32:15.558Z,25.27
2022-10-17T05:35:01.615Z,24.10
2022-10-17T05:37:48.489Z,26.63
2022-10-17T05:40:35.680Z,27.20
2022-10-17T05:43:22.370Z,27.15
2022-10-17T05:46:08.350Z,28.30
2022-10-17T05:48:55.653Z,26.63
2022-10-17T05:51:41.737Z,26.05
2022-10-17T05:54:28.041Z,28.17
2022-10-17T05:57:14.996Z,29.00
2022-10-17T06:00:02.645Z,28.95
2022-10-17T06:02:59.783Z,30.15
2022-10-17T06:05:48.579Z,31.80
2022-10-17T06:08:35.035Z,29.63
2022-10-17T06:11:22.542Z,27.77
2022-10-17T06:14:08.685Z,27.85
2022-10-17T06:16:56.498Z,28.08
2022-10-17T06:19:42.257Z,27.15
2022-10-17T06:22:28.857Z,29.13
2022-10-17T06:25:15.429Z,26.30
2022-10-17T06:28:01.342Z,27.40
2022-10-17T06:30:47.485Z,25.45
2022-10-17T06:33:34.616Z,25.60
2022-10-17T06:36:21.363Z,25.33
2022-10-17T06:39:08.834Z,26.10
2022-10-17T06:42:19.890Z,26.17
2022-10-17T06:45:21.657Z,25.65
2022-10-17T06:48:33.978Z,27.08
2022-10-17T06:51:39.808Z,26.80
2022-10-17T06:54:28.545Z,28.90
2022-10-17T06:57:40.618Z,29.60
2022-10-17T07:01:10.230Z,29.80
2022-10-17T07:03:56.206Z,28.45
2022-10-17T07:06:42.276Z,29.52
2022-10-17T07:09:39.476Z,29.15
2022-10-17T07:12:25.398Z,27.58
2022-10-17T07:15:11.305Z,27.67
2022-10-17T07:17:57.555Z,27.02
2022-10-17T07:20:44.014Z,25.35
2022-10-17T07:23:30.268Z,27.30
2022-10-17T07:26:17.234Z,27.70
2022-10-17T07:29:02.978Z,25.05
2022-10-17T07:31:56.537Z,26.20
2022-10-17T07:34:42.509Z,28.00
2022-10-17T07:37:30.252Z,26.48
2022-10-17T07:40:18.347Z,25.33
2022-10-17T07:43:04.668Z,26.08
2022-10-17T07:45:50.809Z,26.45
2022-10-17T07:48:36.543Z,26.60
2022-10-17T07:51:23.265Z,27.23
2022-10-17T07:54:09.185Z,27.42
2022-10-17T07:56:55.361Z,27.02
2022-10-17T07:59:41.960Z,28.15
2022-10-17T08:02:28.491Z,27.20
2022-10-17T08:05:14.576Z,25.88
2022-10-17T08:08:00.800Z,25.27
2022-10-17T08:10:46.558Z,26.00
2022-10-17T08:13:34.271Z,26.30
2022-10-17T08:16:20.264Z,26.60
2022-10-17T08:19:06.183Z,26.48
2022-10-17T08:21:54.304Z,26.45
2022-10-17T08:24:40.138Z,26.48
2022-10-17T08:27:27.785Z,27.83
2022-10-17T08:30:13.617Z,26.73
2022-10-17T08:32:59.275Z,26.65
2022-10-17T08:35:44.741Z,27.27
2022-10-17T08:38:35.071Z,26.33
2022-10-17T08:41:40.407Z,27.30
2022-10-17T08:44:48.181Z,26.13
2022-10-17T08:47:40.171Z,25.20
2022-10-17T08:50:36.981Z,26.27
2022-10-17T08:53:42.354Z,24.65
2022-10-17T08:56:48.892Z,26.02
2022-10-17T08:59:35.718Z,25.48
2022-10-17T09:02:31.774Z,25.40
2022-10-17T09:05:39.027Z,24.65
2022-10-17T09:08:31.937Z,25.77
2022-10-17T09:11:51.346Z,24.13
2022-10-17T09:14:49.165Z,25.00
2022-10-17T09:17:54.497Z,25.00
2022-10-17T09:20:48.149Z,24.38
2022-10-17T09:23:45.418Z,25.45
2022-10-17T09:26:31.652Z,24.20
2022-10-17T09:29:22.451Z,25.17
2022-10-17T09:32:21.983Z,24.80
2022-10-17T09:35:12.967Z,39.38
2022-10-17T09:37:58.542Z,24.38
2022-10-17T09:40:45.629Z,23.80
2022-10-17T09:43:32.111Z,23.30
2022-10-17T09:46:26.422Z,22.75
2022-10-17T09:49:20.369Z,22.58
2022-10-17T09:52:12.886Z,21.85
2022-10-17T09:55:21.591Z,22.85
2022-10-17T09:58:09.087Z,28.50
2022-10-17T10:01:19.634Z,22.20
2022-10-17T10:04:12.913Z,23.58
2022-10-17T10:07:05.986Z,22.40
2022-10-17T10:09:51.894Z,22.23
2022-10-17T10:12:39.057Z,23.65
2022-10-17T10:15:35.930Z,21.50
2022-10-17T10:18:25.025Z,22.88
2022-10-17T10:21:16.387Z,22.60
2022-10-17T10:24:09.952Z,22.80
2022-10-17T10:26:58.305Z,22.42
2022-10-17T10:29:51.923Z,22.40
2022-10-17T10:32:37.487Z,22.30
2022-10-17T10:35:33.253Z,22.45
2022-10-17T10:38:21.079Z,21.80
2022-10-17T10:41:08.332Z,22.23
2022-10-17T10:43:55.067Z,21.75
2022-10-17T10:46:41.454Z,21.73
2022-10-17T10:49:30.922Z,22.33
2022-10-17T10:52:38.018Z,21.70
2022-10-17T10:55:27.792Z,20.38
2022-10-17T10:58:26.440Z,20.80
2022-10-17T11:01:43.860Z,20.60
2022-10-17T11:04:38.360Z,20.52
2022-10-17T11:07:28.984Z,19.55
2022-10-17T11:10:23.698Z,20.60
2022-10-17T11:13:17.845Z,20.65
2022-10-17T11:16:16.052Z,19.67
2022-10-17T11:19:35.878Z,18.98
2022-10-17T11:22:32.419Z,18.33
2022-10-17T11:25:28.692Z,17.80
2022-10-17T11:28:19.161Z,17.27
2022-10-17T11:31:08.892Z,17.70
2022-10-17T11:39:39.021Z,14.73
2022-10-17T11:42:29.379Z,14.23
2022-10-17T11:45:18.494Z,14.38
2022-10-17T11:48:13.910Z,14.52
2022-10-17T11:54:30.934Z,14.55
2022-10-17T11:57:44.959Z,14.15
2022-10-17T12:00:41.636Z,13.25
2022-10-17T12:03:59.859Z,11.85
2022-10-17T12:06:52.064Z,13.60
2022-10-17T12:09:43.451Z,12.77
2022-10-17T12:12:31.574Z,15.48
2022-10-17T12:15:20.828Z,12.80
2022-10-17T12:18:16.451Z,12.52
2022-10-17T12:21:02.581Z,11.85
2022-10-17T12:23:55.339Z,11.45
2022-10-17T12:26:41.828Z,11.70
2022-10-17T12:29:29.161Z,11.18
2022-10-17T12:32:15.561Z,12.85
2022-10-17T12:35:01.628Z,11.77
2022-10-17T12:37:50.717Z,10.88
2022-10-17T12:40:36.528Z,11.68
2022-10-17T12:43:28.766Z,10.85
2022-10-17T12:46:47.759Z,10.18
2022-10-17T12:49:45.581Z,9.45
2022-10-17T12:52:31.270Z,9.88
2022-10-17T12:55:18.638Z,9.48
2022-10-17T12:58:10.512Z,10.27
2022-10-17T13:01:23.596Z,9.25
2022-10-17T13:04:05.932Z,9.27
2022-10-17T13:06:54.778Z,9.38
2022-10-17T13:09:43.706Z,9.48
2022-10-17T13:12:30.308Z,9.65
2022-10-17T13:15:19.103Z,9.23
2022-10-17T13:18:05.853Z,9.40
2022-10-17T13:20:56.732Z,9.65
2022-10-17T13:23:42.536Z,9.18
2022-10-17T13:26:28.828Z,10.45
2022-10-17T13:29:15.978Z,9.88
2022-10-17T13:32:04.850Z,10.35
2022-10-17T13:35:10.542Z,10.95
2022-10-17T13:37:56.689Z,10.93
2022-10-17T13:40:50.019Z,9.95
2022-10-17T13:43:36.669Z,9.45
2022-10-17T13:46:39.182Z,9.50
2022-10-17T13:49:33.966Z,10.15
2022-10-17T13:52:23.626Z,9.75
2022-10-17T13:55:17.602Z,9.68
2022-10-17T13:58:31.650Z,10.23
2022-10-17T14:01:18.592Z,10.57
2022-10-17T14:04:10.435Z,10.07
2022-10-17T14:06:58.108Z,10.10
2022-10-17T14:09:46.692Z,10.35
2022-10-17T14:12:33.660Z,11.00
2022-10-17T14:15:20.020Z,16.38
2022-10-17T14:18:08.425Z,11.98
2022-10-17T14:24:14.555Z,13.45
2022-10-17T14:27:00.637Z,11.90
2022-10-17T14:29:53.932Z,11.27
2022-10-17T14:32:43.088Z,11.85
2022-10-17T14:35:41.470Z,11.35
2022-10-17T14:38:29.817Z,11.90
2022-10-17T14:41:41.919Z,10.65
2022-10-17T14:44:32.062Z,9.85
2022-10-17T14:47:42.214Z,10.13
2022-10-17T14:50:29.384Z,9.23
2022-10-17T14:53:14.725Z,11.55
2022-10-17T14:56:24.963Z,11.68
2022-10-17T14:59:13.741Z,10.15
2022-10-17T15:02:01.343Z,9.75
2022-10-17T15:04:47.545Z,9.20
2022-10-17T15:07:33.371Z,9.63
2022-10-17T15:10:26.538Z,9.40
2022-10-17T15:13:27.612Z,11.73
2022-10-17T15:16:18.609Z,16.70
2022-10-17T15:19:04.566Z,12.05
2022-10-17T15:21:50.235Z,12.00
2022-10-17T15:24:35.905Z,13.52
2022-10-17T15:27:24.145Z,20.40
2022-10-17T15:30:32.422Z,29.80
2022-10-17T15:33:18.216Z,27.50
2022-10-17T15:36:04.403Z,20.48
2022-10-17T15:38:53.242Z,13.13
2022-10-17T15:41:39.235Z,11.85
2022-10-17T15:44:24.693Z,12.88
2022-10-17T15:47:20.266Z,13.80
2022-10-17T15:50:08.726Z,14.05
2022-10-17T15:52:55.057Z,13.77
2022-10-17T15:55:41.249Z,15.07
2022-10-17T15:58:34.346Z,14.80
2022-10-17T16:01:25.790Z,14.23
2022-10-17T16:04:14.927Z,15.13
2022-10-17T16:07:00.780Z,14.95
2022-10-17T16:09:47.185Z,15.10
2022-10-17T16:12:37.115Z,15.02
2022-10-17T16:15:28.001Z,14.65
2022-10-17T16:20:59.456Z,14.15
2022-10-17T16:23:45.713Z,14.23
2022-10-17T16:26:31.684Z,14.25
2022-10-17T16:29:17.462Z,14.18
2022-10-17T16:32:03.206Z,14.00
2022-10-17T16:34:48.988Z,15.38
2022-10-17T16:37:35.800Z,16.70
2022-10-17T16:40:21.691Z,16.85
2022-10-17T16:43:09.681Z,15.80
2022-10-17T16:45:55.407Z,16.65
2022-10-17T16:48:42.184Z,14.60
2022-10-17T16:51:29.234Z,16.73
2022-10-17T16:54:14.924Z,16.08
2022-10-17T16:57:01.294Z,16.35
2022-10-17T16:59:47.272Z,18.42
2022-10-17T17:02:33.289Z,17.45
2022-10-17T17:05:19.300Z,17.48
2022-10-17T17:08:07.976Z,18.67
2022-10-17T17:10:58.750Z,18.65
2022-10-17T17:13:44.566Z,18.05
2022-10-17T17:16:31.754Z,18.02
2022-10-17T17:19:17.582Z,18.48
2022-10-17T17:22:03.673Z,19.25
2022-10-17T17:27:41.080Z,20.25
2022-10-17T17:30:26.507Z,19.52
2022-10-17T17:33:12.437Z,21.48
2022-10-17T17:36:00.230Z,23.70
2022-10-17T17:38:46.799Z,26.50
2022-10-17T17:41:33.124Z,25.00
2022-10-17T17:44:19.250Z,33.60
2022-10-17T17:47:05.758Z,31.33
2022-10-17T17:49:51.470Z,29.23
2022-10-17T17:52:37.134Z,31.60
2022-10-17T17:55:23.510Z,30.70
2022-10-17T17:58:09.442Z,27.63
2022-10-17T18:00:55.112Z,27.60
2022-10-17T18:03:41.146Z,28.33
2022-10-17T18:06:28.021Z,29.17
2022-10-17T18:09:14.026Z,29.08
2022-10-17T18:11:59.855Z,34.00
2022-10-17T18:14:45.631Z,30.05
2022-10-17T18:17:31.559Z,29.25
2022-10-17T18:20:17.099Z,29.88
2022-10-17T18:23:04.210Z,28.88
2022-10-17T18:26:00.735Z,30.38
2022-10-17T18:28:46.580Z,28.95
2022-10-17T18:31:35.880Z,26.88
2022-10-17T18:34:22.116Z,29.02
2022-10-17T18:37:07.738Z,28.30
2022-10-17T18:39:55.815Z,27.10
2022-10-17T18:42:44.397Z,27.30
2022-10-17T18:45:30.152Z,28.63
2022-10-17T18:48:15.703Z,26.80
2022-10-17T18:51:02.941Z,26.90
2022-10-17T18:53:50.433Z,35.38
2022-10-17T18:56:36.130Z,28.42
2022-10-17T18:59:22.514Z,25.83
2022-10-17T19:02:12.895Z,28.55
2022-10-17T19:04:58.587Z,29.98
2022-10-17T19:07:44.609Z,34.58
2022-10-17T19:10:32.616Z,35.15
2022-10-17T19:13:21.520Z,35.00
2022-10-17T19:16:08.792Z,33.80
2022-10-17T19:19:03.197Z,34.10
2022-10-17T19:21:49.521Z,33.88
2022-10-17T19:24:35.685Z,30.83
2022-10-17T19:27:21.513Z,31.00
2022-10-17T19:30:07.957Z,32.42
2022-10-17T19:32:53.728Z,31.27
2022-10-17T19:35:41.362Z,31.73
2022-10-17T19:38:27.527Z,30.52
2022-10-17T19:41:15.497Z,30.15
2022-10-17T19:44:01.431Z,30.75
2022-10-17T19:46:49.148Z,28.42
2022-10-17T19:49:35.172Z,28.20
2022-10-17T19:52:21.379Z,27.98
2022-10-17T19:55:07.442Z,29.67
2022-10-17T19:57:53.354Z,30.15
2022-10-17T20:00:38.931Z,28.50
2022-10-17T20:03:25.420Z,29.75
2022-10-17T20:06:11.526Z,30.73
2022-10-17T20:08:58.546Z,29.55
2022-10-17T20:11:44.605Z,31.50
2022-10-17T20:14:30.605Z,28.58
2022-10-17T20:17:16.433Z,28.30
2022-10-17T20:20:07.670Z,29.38
2022-10-17T20:22:54.569Z,29.65
2022-10-17T20:25:40.329Z,30.80
2022-10-17T20:28:27.477Z,30.13
2022-10-17T20:31:14.246Z,28.98
2022-10-17T20:34:00.538Z,30.58
2022-10-17T20:36:47.180Z,29.25
2022-10-17T20:39:32.921Z,26.65
2022-10-17T20:42:19.053Z,28.38
2022-10-17T20:45:06.046Z,27.20
2022-10-17T20:47:53.972Z,29.38
2022-10-17T20:50:39.723Z,32.90
2022-10-17T20:53:36.544Z,30.02
2022-10-17T20:56:28.460Z,28.95
2022-10-17T20:59:16.214Z,29.58
2022-10-17T21:02:02.787Z,30.08
2022-10-17T21:04:49.902Z,29.27
2022-10-17T21:07:35.817Z,30.48
2022-10-17T21:10:34.928Z,31.23
2022-10-17T21:13:21.367Z,32.15
2022-10-17T21:16:13.071Z,31.75
2022-10-17T21:18:59.084Z,32.20
2022-10-17T21:21:46.087Z,30.85
2022-10-17T21:24:31.568Z,32.30
2022-10-17T21:27:18.656Z,30.27
2022-10-17T21:30:05.071Z,30.05
2022-10-17T21:32:54.337Z,30.30
2022-10-17T21:35:40.514Z,30.77
2022-10-17T21:38:26.349Z,30.17
2022-10-17T21:41:14.198Z,29.90
2022-10-17T21:44:02.211Z,31.77
2022-10-17T21:46:48.392Z,32.22
2022-10-17T21:49:34.122Z,35.10
2022-10-17T21:52:19.567Z,33.67
2022-10-17T21:55:05.511Z,29.63
2022-10-17T21:57:51.441Z,30.02
2022-10-17T22:00:37.058Z,29.52
2022-10-17T22:03:22.809Z,27.95
2022-10-17T22:06:41.388Z,28.85
2022-10-17T22:09:23.581Z,27.55
2022-10-17T22:12:09.762Z,29.55
2022-10-17T22:14:55.755Z,28.92
2022-10-17T22:17:41.613Z,27.35
2022-10-17T22:20:27.117Z,28.17
2022-10-17T22:23:12.739Z,26.88
2022-10-17T22:25:59.192Z,25.50
2022-10-17T22:28:45.144Z,25.65
2022-10-17T22:31:31.346Z,24.67
2022-10-17T22:34:17.673Z,24.45
2022-10-17T22:37:03.562Z,26.05
2022-10-17T22:39:49.504Z,25.42
2022-10-17T22:42:35.570Z,25.08
2022-10-17T22:45:22.378Z,25.55
2022-10-17T22:48:08.508Z,24.13
2022-10-17T22:50:56.101Z,23.70
2022-10-17T22:53:41.768Z,22.83
2022-10-17T22:56:27.706Z,23.15
2022-10-17T22:59:13.192Z,23.10
2022-10-17T23:01:59.310Z,22.70
2022-10-17T23:04:45.233Z,22.48
2022-10-17T23:07:31.515Z,22.38
2022-10-17T23:10:17.447Z,22.85
2022-10-17T23:13:03.950Z,21.48
2022-10-17T23:15:54.593Z,21.85
2022-10-17T23:18:41.009Z,21.40
2022-10-17T23:21:26.413Z,21.77
2022-10-17T23:24:12.699Z,22.50
2022-10-17T23:26:58.818Z,21.85
2022-10-17T23:29:44.631Z,22.40
2022-10-17T23:32:31.313Z,21.85
2022-10-17T23:35:17.548Z,21.10
2022-10-17T23:38:03.252Z,21.90
2022-10-17T23:40:49.174Z,23.27
2022-10-17T23:43:34.904Z,20.92
2022-10-17T23:46:20.518Z,21.92
2022-10-17T23:49:07.158Z,23.10
2022-10-17T23:51:52.852Z,22.35
2022-10-17T23:54:38.458Z,22.98
2022-10-17T23:57:24.270Z,21.95
